sensor_id;sensor_type;location;lat;lon;timestamp;pressure;altitude;pressure_sealevel;temperature;humidity
45345;BME280;31078;48.304;11.896;2023-03-04T00:02:17;96591.75;;;1.00;98.98
45345;BME280;31078;48.304;11.896;2023-03-04T00:04:43;96598.28;;;0.88;100.00
45345;BME280;31078;48.304;11.896;2023-03-04T00:07:10;96591.72;;;0.73;100.00
45345;BME280;31078;48.304;11.896;2023-03-04T00:09:41;96589.47;;;0.65;100.00
45345;BME280;31078;48.304;11.896;2023-03-04T00:12:08;96595.31;;;0.62;100.00
45345;BME280;31078;48.304;11.896;2023-03-04T00:14:35;96591.75;;;0.57;100.00
45345;BME280;31078;48.304;11.896;2023-03-04T00:17:01;96597.38;;;0.55;100.00
45345;BME280;31078;48.304;11.896;2023-03-04T00:19:28;96596.97;;;0.46;100.00
45345;BME280;31078;48.304;11.896;2023-03-04T00:21:55;96595.63;;;0.44;100.00
45345;BME280;31078;48.304;11.896;2023-03-04T00:24:21;96594.75;;;0.38;100.00
45345;BME280;31078;48.304;11.896;2023-03-04T00:26:49;96589.56;;;0.32;100.00
45345;BME280;31078;48.304;11.896;2023-03-04T00:29:16;96600.75;;;0.29;100.00
45345;BME280;31078;48.304;11.896;2023-03-04T00:31:43;96600.84;;;0.34;100.00
45345;BME280;31078;48.304;11.896;2023-03-04T00:34:09;96609.34;;;0.31;100.00
45345;BME280;31078;48.304;11.896;2023-03-04T00:36:36;96609.28;;;0.25;100.00
45345;BME280;31078;48.304;11.896;2023-03-04T00:39:02;96605.06;;;0.30;100.00
45345;BME280;31078;48.304;11.896;2023-03-04T00:41:29;96610.81;;;0.38;100.00
45345;BME280;31078;48.304;11.896;2023-03-04T00:43:55;96612.25;;;0.46;100.00
45345;BME280;31078;48.304;11.896;2023-03-04T00:46:23;96609.63;;;0.51;100.00
45345;BME280;31078;48.304;11.896;2023-03-04T00:48:49;96608.00;;;0.50;100.00
45345;BME280;31078;48.304;11.896;2023-03-04T00:51:16;96615.91;;;0.40;100.00
45345;BME280;31078;48.304;11.896;2023-03-04T00:53:42;96608.88;;;0.34;100.00
45345;BME280;31078;48.304;11.896;2023-03-04T00:56:09;96607.81;;;0.35;100.00
45345;BME280;31078;48.304;11.896;2023-03-04T00:58:35;96601.81;;;0.28;100.00
45345;BME280;31078;48.304;11.896;2023-03-04T01:01:03;96600.22;;;0.27;100.00
45345;BME280;31078;48.304;11.896;2023-03-04T01:03:31;96595.88;;;0.25;100.00
45345;BME280;31078;48.304;11.896;2023-03-04T01:05:58;96593.19;;;0.25;100.00
45345;BME280;31078;48.304;11.896;2023-03-04T01:08:25;96592.66;;;0.23;100.00
45345;BME280;31078;48.304;11.896;2023-03-04T01:10:52;96590.53;;;0.25;100.00
45345;BME280;31078;48.304;11.896;2023-03-04T01:13:21;96586.31;;;0.30;100.00
45345;BME280;31078;48.304;11.896;2023-03-04T01:15:55;96586.56;;;0.28;100.00
45345;BME280;31078;48.304;11.896;2023-03-04T01:18:22;96577.66;;;0.22;100.00
45345;BME280;31078;48.304;11.896;2023-03-04T01:20:50;96582.13;;;0.17;100.00
45345;BME280;31078;48.304;11.896;2023-03-04T01:23:16;96577.56;;;0.17;100.00
45345;BME280;31078;48.304;11.896;2023-03-04T01:25:46;96574.56;;;0.14;100.00
45345;BME280;31078;48.304;11.896;2023-03-04T01:28:12;96565.19;;;0.11;100.00
45345;BME280;31078;48.304;11.896;2023-03-04T01:30:39;96567.84;;;0.11;100.00
45345;BME280;31078;48.304;11.896;2023-03-04T01:33:05;96566.22;;;0.10;100.00
45345;BME280;31078;48.304;11.896;2023-03-04T01:35:32;96574.00;;;0.12;100.00
45345;BME280;31078;48.304;11.896;2023-03-04T01:38:00;96569.22;;;0.14;100.00
45345;BME280;31078;48.304;11.896;2023-03-04T01:40:26;96564.03;;;0.07;100.00
45345;BME280;31078;48.304;11.896;2023-03-04T01:42:53;96558.69;;;0.07;100.00
45345;BME280;31078;48.304;11.896;2023-03-04T01:45:20;96568.41;;;0.13;100.00
45345;BME280;31078;48.304;11.896;2023-03-04T01:47:47;96564.66;;;0.14;100.00
45345;BME280;31078;48.304;11.896;2023-03-04T01:50:19;96565.97;;;0.12;100.00
45345;BME280;31078;48.304;11.896;2023-03-04T01:52:45;96563.59;;;0.15;100.00
45345;BME280;31078;48.304;11.896;2023-03-04T01:55:16;96561.34;;;0.07;100.00
45345;BME280;31078;48.304;11.896;2023-03-04T01:57:44;96561.03;;;0.04;100.00
45345;BME280;31078;48.304;11.896;2023-03-04T02:00:21;96553.25;;;0.02;100.00
45345;BME280;31078;48.304;11.896;2023-03-04T02:02:50;96550.03;;;0.00;100.00
45345;BME280;31078;48.304;11.896;2023-03-04T02:05:18;96544.34;;;-0.04;100.00
45345;BME280;31078;48.304;11.896;2023-03-04T02:07:45;96545.97;;;-0.03;100.00
45345;BME280;31078;48.304;11.896;2023-03-04T02:10:11;96550.50;;;-0.03;100.00
45345;BME280;31078;48.304;11.896;2023-03-04T02:12:39;96537.66;;;-0.01;100.00
45345;BME280;31078;48.304;11.896;2023-03-04T02:15:07;96542.53;;;0.02;100.00
45345;BME280;31078;48.304;11.896;2023-03-04T02:17:34;96538.88;;;0.08;100.00
45345;BME280;31078;48.304;11.896;2023-03-04T02:20:06;96537.75;;;0.04;100.00
45345;BME280;31078;48.304;11.896;2023-03-04T02:22:46;96535.50;;;-0.04;100.00
45345;BME280;31078;48.304;11.896;2023-03-04T02:25:21;96531.03;;;0.02;100.00
45345;BME280;31078;48.304;11.896;2023-03-04T02:27:50;96531.84;;;0.02;100.00
45345;BME280;31078;48.304;11.896;2023-03-04T02:30:19;96535.72;;;-0.06;100.00
45345;BME280;31078;48.304;11.896;2023-03-04T02:32:46;96532.25;;;-0.06;100.00
45345;BME280;31078;48.304;11.896;2023-03-04T02:35:15;96531.75;;;-0.03;100.00
45345;BME280;31078;48.304;11.896;2023-03-04T02:37:42;96532.81;;;-0.04;100.00
45345;BME280;31078;48.304;11.896;2023-03-04T02:40:13;96523.91;;;-0.10;100.00
45345;BME280;31078;48.304;11.896;2023-03-04T02:42:43;96530.97;;;-0.04;100.00
45345;BME280;31078;48.304;11.896;2023-03-04T02:45:34;96524.47;;;-0.08;100.00
45345;BME280;31078;48.304;11.896;2023-03-04T02:48:01;96533.75;;;-0.15;100.00
45345;BME280;31078;48.304;11.896;2023-03-04T02:50:32;96531.13;;;-0.10;100.00
45345;BME280;31078;48.304;11.896;2023-03-04T02:52:59;96534.91;;;-0.06;100.00
45345;BME280;31078;48.304;11.896;2023-03-04T02:55:25;96527.41;;;-0.09;100.00
45345;BME280;31078;48.304;11.896;2023-03-04T02:57:52;96529.09;;;-0.03;100.00
45345;BME280;31078;48.304;11.896;2023-03-04T03:00:19;96534.44;;;-0.03;100.00
45345;BME280;31078;48.304;11.896;2023-03-04T03:02:47;96530.22;;;0.01;100.00
45345;BME280;31078;48.304;11.896;2023-03-04T03:05:14;96526.41;;;-0.03;100.00
45345;BME280;31078;48.304;11.896;2023-03-04T03:07:41;96531.84;;;0.02;100.00
45345;BME280;31078;48.304;11.896;2023-03-04T03:10:09;96541.00;;;0.06;100.00
45345;BME280;31078;48.304;11.896;2023-03-04T03:12:35;96533.97;;;0.00;100.00
45345;BME280;31078;48.304;11.896;2023-03-04T03:15:02;96538.59;;;-0.12;100.00
45345;BME280;31078;48.304;11.896;2023-03-04T03:17:29;96536.72;;;-0.12;100.00
45345;BME280;31078;48.304;11.896;2023-03-04T03:19:56;96539.50;;;-0.23;100.00
45345;BME280;31078;48.304;11.896;2023-03-04T03:22:23;96539.34;;;-0.34;100.00
45345;BME280;31078;48.304;11.896;2023-03-04T03:24:50;96539.81;;;-0.37;100.00
45345;BME280;31078;48.304;11.896;2023-03-04T03:27:16;96533.81;;;-0.44;100.00
45345;BME280;31078;48.304;11.896;2023-03-04T03:29:42;96539.69;;;-0.47;100.00
45345;BME280;31078;48.304;11.896;2023-03-04T03:32:13;96529.78;;;-0.46;100.00
45345;BME280;31078;48.304;11.896;2023-03-04T03:34:42;96536.41;;;-0.49;100.00
45345;BME280;31078;48.304;11.896;2023-03-04T03:37:10;96532.50;;;-0.58;100.00
45345;BME280;31078;48.304;11.896;2023-03-04T03:39:37;96526.53;;;-0.65;100.00
45345;BME280;31078;48.304;11.896;2023-03-04T03:42:03;96532.34;;;-0.68;100.00
45345;BME280;31078;48.304;11.896;2023-03-04T03:44:30;96531.22;;;-0.72;100.00
45345;BME280;31078;48.304;11.896;2023-03-04T03:46:56;96530.25;;;-0.66;100.00
45345;BME280;31078;48.304;11.896;2023-03-04T03:49:23;96527.97;;;-0.58;100.00
45345;BME280;31078;48.304;11.896;2023-03-04T03:51:49;96536.66;;;-0.67;100.00
45345;BME280;31078;48.304;11.896;2023-03-04T03:54:17;96530.72;;;-0.69;100.00
45345;BME280;31078;48.304;11.896;2023-03-04T03:56:44;96538.84;;;-0.64;100.00
45345;BME280;31078;48.304;11.896;2023-03-04T03:59:10;96522.78;;;-0.64;100.00
45345;BME280;31078;48.304;11.896;2023-03-04T04:01:36;96530.44;;;-0.56;100.00
45345;BME280;31078;48.304;11.896;2023-03-04T04:04:04;96532.03;;;-0.55;100.00
45345;BME280;31078;48.304;11.896;2023-03-04T04:06:30;96524.19;;;-0.62;100.00
45345;BME280;31078;48.304;11.896;2023-03-04T04:08:57;96524.41;;;-0.63;100.00
45345;BME280;31078;48.304;11.896;2023-03-04T04:11:25;96530.25;;;-0.66;100.00
45345;BME280;31078;48.304;11.896;2023-03-04T04:13:52;96527.34;;;-0.65;100.00
45345;BME280;31078;48.304;11.896;2023-03-04T04:16:19;96527.84;;;-0.51;100.00
45345;BME280;31078;48.304;11.896;2023-03-04T04:18:46;96526.22;;;-0.52;100.00
45345;BME280;31078;48.304;11.896;2023-03-04T04:21:13;96522.97;;;-0.54;100.00
45345;BME280;31078;48.304;11.896;2023-03-04T04:23:39;96520.28;;;-0.54;100.00
45345;BME280;31078;48.304;11.896;2023-03-04T04:26:06;96523.28;;;-0.50;100.00
45345;BME280;31078;48.304;11.896;2023-03-04T04:28:34;96528.81;;;-0.57;100.00
45345;BME280;31078;48.304;11.896;2023-03-04T04:31:00;96522.25;;;-0.66;100.00
45345;BME280;31078;48.304;11.896;2023-03-04T04:33:27;96524.31;;;-0.85;100.00
45345;BME280;31078;48.304;11.896;2023-03-04T04:35:53;96532.03;;;-0.89;100.00
45345;BME280;31078;48.304;11.896;2023-03-04T04:38:20;96526.19;;;-0.86;100.00
45345;BME280;31078;48.304;11.896;2023-03-04T04:40:46;96525.63;;;-0.88;100.00
45345;BME280;31078;48.304;11.896;2023-03-04T04:43:12;96522.59;;;-0.91;100.00
45345;BME280;31078;48.304;11.896;2023-03-04T04:45:40;96525.66;;;-0.99;100.00
45345;BME280;31078;48.304;11.896;2023-03-04T04:48:07;96517.25;;;-1.08;100.00
45345;BME280;31078;48.304;11.896;2023-03-04T04:50:33;96520.63;;;-1.13;100.00
45345;BME280;31078;48.304;11.896;2023-03-04T04:53:00;96525.63;;;-1.16;100.00
45345;BME280;31078;48.304;11.896;2023-03-04T04:55:26;96517.31;;;-1.20;100.00
45345;BME280;31078;48.304;11.896;2023-03-04T04:57:53;96511.63;;;-1.23;100.00
45345;BME280;31078;48.304;11.896;2023-03-04T05:00:20;96517.66;;;-1.28;100.00
45345;BME280;31078;48.304;11.896;2023-03-04T05:02:48;96518.00;;;-1.24;100.00
45345;BME280;31078;48.304;11.896;2023-03-04T05:05:14;96520.59;;;-1.29;100.00
45345;BME280;31078;48.304;11.896;2023-03-04T05:07:40;96522.13;;;-1.34;100.00
45345;BME280;31078;48.304;11.896;2023-03-04T05:10:09;96519.78;;;-1.30;100.00
45345;BME280;31078;48.304;11.896;2023-03-04T05:12:35;96521.31;;;-1.34;100.00
45345;BME280;31078;48.304;11.896;2023-03-04T05:15:02;96524.78;;;-1.34;100.00
45345;BME280;31078;48.304;11.896;2023-03-04T05:17:28;96527.09;;;-1.37;100.00
45345;BME280;31078;48.304;11.896;2023-03-04T05:19:56;96531.09;;;-1.40;100.00
45345;BME280;31078;48.304;11.896;2023-03-04T05:22:23;96533.16;;;-1.42;100.00
45345;BME280;31078;48.304;11.896;2023-03-04T05:24:49;96531.53;;;-1.43;100.00
45345;BME280;31078;48.304;11.896;2023-03-04T05:27:15;96528.88;;;-1.43;100.00
45345;BME280;31078;48.304;11.896;2023-03-04T05:29:42;96527.25;;;-1.44;100.00
45345;BME280;31078;48.304;11.896;2023-03-04T05:32:11;96534.47;;;-1.44;100.00
45345;BME280;31078;48.304;11.896;2023-03-04T05:34:37;96538.03;;;-1.39;100.00
45345;BME280;31078;48.304;11.896;2023-03-04T05:37:06;96531.41;;;-1.36;100.00
45345;BME280;31078;48.304;11.896;2023-03-04T05:39:33;96536.44;;;-1.40;100.00
45345;BME280;31078;48.304;11.896;2023-03-04T05:41:59;96532.13;;;-1.41;100.00
45345;BME280;31078;48.304;11.896;2023-03-04T05:44:26;96529.47;;;-1.41;100.00
45345;BME280;31078;48.304;11.896;2023-03-04T05:46:52;96540.47;;;-1.37;100.00
45345;BME280;31078;48.304;11.896;2023-03-04T05:49:19;96535.72;;;-1.35;100.00
45345;BME280;31078;48.304;11.896;2023-03-04T05:51:45;96529.66;;;-1.30;100.00
45345;BME280;31078;48.304;11.896;2023-03-04T05:54:13;96534.50;;;-1.27;100.00
45345;BME280;31078;48.304;11.896;2023-03-04T05:56:40;96534.31;;;-1.38;100.00
45345;BME280;31078;48.304;11.896;2023-03-04T05:59:07;96542.91;;;-1.36;100.00
45345;BME280;31078;48.304;11.896;2023-03-04T06:01:33;96546.34;;;-1.23;100.00
45345;BME280;31078;48.304;11.896;2023-03-04T06:04:00;96551.69;;;-1.23;100.00
45345;BME280;31078;48.304;11.896;2023-03-04T06:06:26;96554.94;;;-1.21;100.00
45345;BME280;31078;48.304;11.896;2023-03-04T06:08:53;96556.69;;;-1.27;100.00
45345;BME280;31078;48.304;11.896;2023-03-04T06:11:20;96550.75;;;-1.17;100.00
45345;BME280;31078;48.304;11.896;2023-03-04T06:13:47;96557.69;;;-1.16;100.00
45345;BME280;31078;48.304;11.896;2023-03-04T06:16:13;96558.41;;;-1.21;100.00
45345;BME280;31078;48.304;11.896;2023-03-04T06:18:40;96549.97;;;-1.29;100.00
45345;BME280;31078;48.304;11.896;2023-03-04T06:21:06;96558.00;;;-1.29;100.00
45345;BME280;31078;48.304;11.896;2023-03-04T06:23:33;96548.81;;;-1.34;100.00
45345;BME280;31078;48.304;11.896;2023-03-04T06:25:59;96560.56;;;-1.35;100.00
45345;BME280;31078;48.304;11.896;2023-03-04T06:28:28;96557.19;;;-1.30;100.00
45345;BME280;31078;48.304;11.896;2023-03-04T06:30:55;96564.25;;;-1.24;100.00
45345;BME280;31078;48.304;11.896;2023-03-04T06:33:22;96563.53;;;-1.19;100.00
45345;BME280;31078;48.304;11.896;2023-03-04T06:35:53;96569.53;;;-1.12;100.00
45345;BME280;31078;48.304;11.896;2023-03-04T06:38:19;96573.25;;;-1.13;100.00
45345;BME280;31078;48.304;11.896;2023-03-04T06:40:46;96578.13;;;-1.10;100.00
45345;BME280;31078;48.304;11.896;2023-03-04T06:43:12;96571.75;;;-1.09;100.00
45345;BME280;31078;48.304;11.896;2023-03-04T06:45:40;96577.75;;;-1.02;100.00
45345;BME280;31078;48.304;11.896;2023-03-04T06:48:07;96578.31;;;-1.00;100.00
45345;BME280;31078;48.304;11.896;2023-03-04T06:50:33;96582.22;;;-0.91;100.00
45345;BME280;31078;48.304;11.896;2023-03-04T06:53:00;96585.50;;;-0.89;100.00
45345;BME280;31078;48.304;11.896;2023-03-04T06:55:26;96582.75;;;-0.77;100.00
45345;BME280;31078;48.304;11.896;2023-03-04T06:57:53;96586.34;;;-0.71;100.00
45345;BME280;31078;48.304;11.896;2023-03-04T07:00:20;96586.97;;;-0.64;100.00
45345;BME280;31078;48.304;11.896;2023-03-04T07:02:49;96585.69;;;-0.62;100.00
45345;BME280;31078;48.304;11.896;2023-03-04T07:05:16;96588.63;;;-0.46;100.00
45345;BME280;31078;48.304;11.896;2023-03-04T07:07:43;96591.41;;;-0.41;100.00
45345;BME280;31078;48.304;11.896;2023-03-04T07:10:13;96600.97;;;-0.29;100.00
45345;BME280;31078;48.304;11.896;2023-03-04T07:12:42;96591.88;;;-0.28;100.00
45345;BME280;31078;48.304;11.896;2023-03-04T07:15:10;96597.91;;;-0.20;100.00
45345;BME280;31078;48.304;11.896;2023-03-04T07:17:37;96602.19;;;-0.19;100.00
45345;BME280;31078;48.304;11.896;2023-03-04T07:20:08;96595.53;;;0.00;100.00
45345;BME280;31078;48.304;11.896;2023-03-04T07:22:35;96598.03;;;0.07;99.37
45345;BME280;31078;48.304;11.896;2023-03-04T07:25:02;96602.81;;;0.21;99.03
45345;BME280;31078;48.304;11.896;2023-03-04T07:27:29;96608.09;;;0.16;98.33
45345;BME280;31078;48.304;11.896;2023-03-04T07:29:55;96605.91;;;0.13;98.42
45345;BME280;31078;48.304;11.896;2023-03-04T07:32:22;96608.78;;;0.29;98.94
45345;BME280;31078;48.304;11.896;2023-03-04T07:34:48;96621.00;;;0.41;97.69
45345;BME280;31078;48.304;11.896;2023-03-04T07:37:16;96611.44;;;0.67;96.47
45345;BME280;31078;48.304;11.896;2023-03-04T07:39:42;96622.13;;;1.06;94.17
45345;BME280;31078;48.304;11.896;2023-03-04T07:42:09;96620.09;;;1.18;91.40
45345;BME280;31078;48.304;11.896;2023-03-04T07:44:35;96627.84;;;1.15;91.07
45345;BME280;31078;48.304;11.896;2023-03-04T07:47:02;96627.50;;;1.33;90.10
45345;BME280;31078;48.304;11.896;2023-03-04T07:49:28;96631.56;;;1.36;89.68
45345;BME280;31078;48.304;11.896;2023-03-04T07:51:55;96635.13;;;1.19;90.69
45345;BME280;31078;48.304;11.896;2023-03-04T07:54:23;96633.19;;;1.37;90.04
45345;BME280;31078;48.304;11.896;2023-03-04T07:56:49;96627.00;;;1.63;88.17
45345;BME280;31078;48.304;11.896;2023-03-04T07:59:18;96633.06;;;1.80;86.84
45345;BME280;31078;48.304;11.896;2023-03-04T08:01:45;96636.53;;;1.49;86.70
45345;BME280;31078;48.304;11.896;2023-03-04T08:04:12;96636.28;;;2.09;85.57
45345;BME280;31078;48.304;11.896;2023-03-04T08:06:39;96646.03;;;1.89;84.75
45345;BME280;31078;48.304;11.896;2023-03-04T08:09:07;96652.53;;;1.98;84.06
45345;BME280;31078;48.304;11.896;2023-03-04T08:11:36;96645.59;;;2.39;83.75
45345;BME280;31078;48.304;11.896;2023-03-04T08:14:04;96648.47;;;2.65;79.26
45345;BME280;31078;48.304;11.896;2023-03-04T08:16:31;96648.88;;;2.88;78.93
45345;BME280;31078;48.304;11.896;2023-03-04T08:19:00;96647.00;;;3.82;75.47
45345;BME280;31078;48.304;11.896;2023-03-04T08:21:27;96648.53;;;4.85;70.97
45345;BME280;31078;48.304;11.896;2023-03-04T08:23:54;96645.91;;;5.45;67.44
45345;BME280;31078;48.304;11.896;2023-03-04T08:26:24;96639.78;;;5.29;66.20
45345;BME280;31078;48.304;11.896;2023-03-04T08:28:53;96639.41;;;4.76;67.62
45345;BME280;31078;48.304;11.896;2023-03-04T08:31:21;96641.00;;;4.87;66.90
45345;BME280;31078;48.304;11.896;2023-03-04T08:33:47;96643.88;;;5.11;66.13
45345;BME280;31078;48.304;11.896;2023-03-04T08:36:15;96636.63;;;5.12;65.92
45345;BME280;31078;48.304;11.896;2023-03-04T08:38:41;96640.53;;;4.55;67.52
45345;BME280;31078;48.304;11.896;2023-03-04T08:41:08;96642.50;;;5.24;66.38
45345;BME280;31078;48.304;11.896;2023-03-04T08:43:38;96640.88;;;6.17;64.09
45345;BME280;31078;48.304;11.896;2023-03-04T08:46:06;96635.41;;;4.38;67.05
45345;BME280;31078;48.304;11.896;2023-03-04T08:48:33;96635.69;;;4.26;68.58
45345;BME280;31078;48.304;11.896;2023-03-04T08:50:59;96635.31;;;4.89;67.75
45345;BME280;31078;48.304;11.896;2023-03-04T08:53:26;96638.06;;;6.32;63.59
45345;BME280;31078;48.304;11.896;2023-03-04T08:55:52;96639.97;;;5.92;62.79
45345;BME280;31078;48.304;11.896;2023-03-04T08:58:19;96634.13;;;5.75;64.09
45345;BME280;31078;48.304;11.896;2023-03-04T09:00:47;96640.16;;;5.02;65.20
45345;BME280;31078;48.304;11.896;2023-03-04T09:03:17;96630.91;;;5.18;65.56
45345;BME280;31078;48.304;11.896;2023-03-04T09:05:45;96641.03;;;5.96;63.12
45345;BME280;31078;48.304;11.896;2023-03-04T09:08:12;96643.19;;;5.94;64.00
45345;BME280;31078;48.304;11.896;2023-03-04T09:10:39;96646.34;;;6.12;64.10
45345;BME280;31078;48.304;11.896;2023-03-04T09:13:06;96645.97;;;5.79;62.90
45345;BME280;31078;48.304;11.896;2023-03-04T09:15:33;96639.75;;;5.34;65.24
45345;BME280;31078;48.304;11.896;2023-03-04T09:18:00;96649.81;;;5.68;62.77
45345;BME280;31078;48.304;11.896;2023-03-04T09:20:28;96641.47;;;5.05;63.53
45345;BME280;31078;48.304;11.896;2023-03-04T09:22:54;96641.34;;;4.60;66.17
45345;BME280;31078;48.304;11.896;2023-03-04T09:25:21;96644.25;;;4.79;66.24
45345;BME280;31078;48.304;11.896;2023-03-04T09:27:47;96637.50;;;5.46;65.63
45345;BME280;31078;48.304;11.896;2023-03-04T09:30:14;96638.94;;;5.78;66.03
45345;BME280;31078;48.304;11.896;2023-03-04T09:32:41;96641.50;;;6.04;62.44
45345;BME280;31078;48.304;11.896;2023-03-04T09:35:07;96640.78;;;5.43;62.71
45345;BME280;31078;48.304;11.896;2023-03-04T09:37:36;96638.25;;;5.03;65.11
45345;BME280;31078;48.304;11.896;2023-03-04T09:40:04;96634.47;;;5.04;66.21
45345;BME280;31078;48.304;11.896;2023-03-04T09:42:34;96624.44;;;5.14;67.83
45345;BME280;31078;48.304;11.896;2023-03-04T09:45:03;96627.19;;;5.64;69.28
45345;BME280;31078;48.304;11.896;2023-03-04T09:47:33;96609.19;;;6.51;61.60
45345;BME280;31078;48.304;11.896;2023-03-04T09:50:03;96618.88;;;6.58;59.68
45345;BME280;31078;48.304;11.896;2023-03-04T09:52:41;96622.56;;;6.67;58.88
45345;BME280;31078;48.304;11.896;2023-03-04T09:55:16;96619.66;;;7.11;59.38
45345;BME280;31078;48.304;11.896;2023-03-04T09:57:50;96616.56;;;7.98;58.05
45345;BME280;31078;48.304;11.896;2023-03-04T10:00:21;96612.63;;;7.53;55.78
45345;BME280;31078;48.304;11.896;2023-03-04T10:03:04;96621.56;;;7.11;57.24
45345;BME280;31078;48.304;11.896;2023-03-04T10:05:32;96627.28;;;6.85;58.83
45345;BME280;31078;48.304;11.896;2023-03-04T10:08:12;96616.25;;;6.52;60.87
45345;BME280;31078;48.304;11.896;2023-03-04T10:10:43;96624.00;;;6.30;62.53
45345;BME280;31078;48.304;11.896;2023-03-04T10:13:14;96612.56;;;6.38;59.27
45345;BME280;31078;48.304;11.896;2023-03-04T10:15:44;96613.13;;;6.88;57.22
45345;BME280;31078;48.304;11.896;2023-03-04T10:18:15;96610.81;;;6.23;60.73
45345;BME280;31078;48.304;11.896;2023-03-04T10:20:53;96607.63;;;6.45;59.52
45345;BME280;31078;48.304;11.896;2023-03-04T10:23:25;96607.34;;;6.47;61.30
45345;BME280;31078;48.304;11.896;2023-03-04T10:25:53;96610.91;;;6.13;60.34
45345;BME280;31078;48.304;11.896;2023-03-04T10:28:23;96604.97;;;6.11;61.55
45345;BME280;31078;48.304;11.896;2023-03-04T10:30:55;96605.94;;;5.86;60.44
45345;BME280;31078;48.304;11.896;2023-03-04T10:33:25;96603.06;;;5.72;60.86
45345;BME280;31078;48.304;11.896;2023-03-04T10:36:05;96611.34;;;5.91;60.07
45345;BME280;31078;48.304;11.896;2023-03-04T10:38:41;96600.94;;;6.09;61.38
45345;BME280;31078;48.304;11.896;2023-03-04T10:41:13;96600.81;;;6.53;61.59
45345;BME280;31078;48.304;11.896;2023-03-04T10:43:40;96593.78;;;6.76;59.10
45345;BME280;31078;48.304;11.896;2023-03-04T10:46:10;96586.31;;;6.10;59.16
45345;BME280;31078;48.304;11.896;2023-03-04T10:48:39;96591.72;;;6.10;61.50
45345;BME280;31078;48.304;11.896;2023-03-04T10:51:15;96590.50;;;6.26;59.16
45345;BME280;31078;48.304;11.896;2023-03-04T10:53:46;96595.34;;;6.29;58.18
45345;BME280;31078;48.304;11.896;2023-03-04T10:56:35;96591.16;;;6.13;60.08
45345;BME280;31078;48.304;11.896;2023-03-04T10:59:29;96585.91;;;6.26;60.68
45345;BME280;31078;48.304;11.896;2023-03-04T11:01:57;96588.84;;;6.01;60.02
45345;BME280;31078;48.304;11.896;2023-03-04T11:04:25;96579.13;;;6.29;61.49
45345;BME280;31078;48.304;11.896;2023-03-04T11:06:53;96580.25;;;6.23;60.08
45345;BME280;31078;48.304;11.896;2023-03-04T11:09:24;96571.56;;;6.26;59.97
45345;BME280;31078;48.304;11.896;2023-03-04T11:11:52;96567.75;;;6.56;60.79
45345;BME280;31078;48.304;11.896;2023-03-04T11:14:22;96578.50;;;6.08;59.07
45345;BME280;31078;48.304;11.896;2023-03-04T11:16:55;96577.72;;;6.32;60.57
45345;BME280;31078;48.304;11.896;2023-03-04T11:19:24;96577.88;;;6.45;58.92
45345;BME280;31078;48.304;11.896;2023-03-04T11:21:55;96578.97;;;6.44;59.92
45345;BME280;31078;48.304;11.896;2023-03-04T11:24:26;96572.44;;;6.74;59.71
45345;BME280;31078;48.304;11.896;2023-03-04T11:26:59;96572.03;;;6.86;58.35
45345;BME280;31078;48.304;11.896;2023-03-04T11:29:30;96564.88;;;6.95;57.85
45345;BME280;31078;48.304;11.896;2023-03-04T11:32:04;96567.59;;;6.95;58.70
45345;BME280;31078;48.304;11.896;2023-03-04T11:34:33;96567.63;;;7.14;59.18
45345;BME280;31078;48.304;11.896;2023-03-04T11:37:05;96558.63;;;7.56;55.07
45345;BME280;31078;48.304;11.896;2023-03-04T11:39:37;96564.94;;;7.71;55.45
45345;BME280;31078;48.304;11.896;2023-03-04T11:42:12;96566.13;;;7.65;55.31
45345;BME280;31078;48.304;11.896;2023-03-04T11:44:42;96560.16;;;7.25;54.94
45345;BME280;31078;48.304;11.896;2023-03-04T11:47:20;96560.41;;;7.47;54.17
45345;BME280;31078;48.304;11.896;2023-03-04T11:50:19;96560.63;;;7.70;54.39
45345;BME280;31078;48.304;11.896;2023-03-04T11:53:03;96557.09;;;7.50;54.08
45345;BME280;31078;48.304;11.896;2023-03-04T11:55:40;96554.63;;;6.92;56.37
45345;BME280;31078;48.304;11.896;2023-03-04T11:58:33;96550.94;;;6.83;56.10
45345;BME280;31078;48.304;11.896;2023-03-04T12:01:07;96551.28;;;7.00;55.95
45345;BME280;31078;48.304;11.896;2023-03-04T12:03:54;96554.31;;;6.75;55.42
45345;BME280;31078;48.304;11.896;2023-03-04T12:06:30;96549.25;;;6.68;56.57
45345;BME280;31078;48.304;11.896;2023-03-04T12:09:08;96542.00;;;7.06;58.37
45345;BME280;31078;48.304;11.896;2023-03-04T12:11:46;96542.75;;;6.88;56.98
45345;BME280;31078;48.304;11.896;2023-03-04T12:14:29;96546.44;;;6.97;56.63
45345;BME280;31078;48.304;11.896;2023-03-04T12:20:06;96540.59;;;7.09;58.08
45345;BME280;31078;48.304;11.896;2023-03-04T12:22:43;96538.81;;;6.99;57.14
45345;BME280;31078;48.304;11.896;2023-03-04T12:25:38;96533.97;;;6.77;58.51
45345;BME280;31078;48.304;11.896;2023-03-04T12:31:14;96527.69;;;7.63;56.13
45345;BME280;31078;48.304;11.896;2023-03-04T12:33:57;96529.22;;;7.82;57.72
45345;BME280;31078;48.304;11.896;2023-03-04T12:36:31;96522.47;;;7.47;56.90
45345;BME280;31078;48.304;11.896;2023-03-04T12:39:13;96517.84;;;7.29;56.78
45345;BME280;31078;48.304;11.896;2023-03-04T12:41:50;96512.91;;;6.93;56.96
45345;BME280;31078;48.304;11.896;2023-03-04T12:44:21;96527.50;;;6.97;57.75
45345;BME280;31078;48.304;11.896;2023-03-04T12:47:10;96507.97;;;7.38;56.76
45345;BME280;31078;48.304;11.896;2023-03-04T12:49:56;96511.94;;;7.27;56.60
45345;BME280;31078;48.304;11.896;2023-03-04T12:52:34;96520.84;;;7.46;56.84
45345;BME280;31078;48.304;11.896;2023-03-04T12:55:09;96511.03;;;7.50;55.54
45345;BME280;31078;48.304;11.896;2023-03-04T12:57:36;96505.47;;;6.85;56.59
45345;BME280;31078;48.304;11.896;2023-03-04T13:00:19;96509.94;;;6.95;56.50
45345;BME280;31078;48.304;11.896;2023-03-04T13:02:55;96504.31;;;7.10;59.32
45345;BME280;31078;48.304;11.896;2023-03-04T13:05:36;96501.44;;;7.01;56.02
45345;BME280;31078;48.304;11.896;2023-03-04T13:08:12;96502.25;;;7.02;55.51